createdAt,value
2017-05-24T00:00:30.855Z,1.38
2017-05-24T00:02:59.116Z,1.84
2017-05-24T00:05:27.327Z,1.36
2017-05-24T00:07:55.536Z,1.20
2017-05-24T00:10:23.759Z,1.50
2017-05-24T00:12:51.972Z,1.20
2017-05-24T00:15:20.202Z,1.38
2017-05-24T00:17:48.403Z,1.52
2017-05-24T00:20:16.622Z,1.64
2017-05-24T00:22:44.839Z,1.84
2017-05-24T00:25:13.067Z,1.98
2017-05-24T00:27:41.284Z,1.82
2017-05-24T00:30:09.503Z,1.48
2017-05-24T00:32:37.711Z,1.60
2017-05-24T00:35:05.915Z,1.88
2017-05-24T00:37:34.131Z,1.66
2017-05-24T00:40:02.351Z,1.60
2017-05-24T00:42:30.571Z,2.14
2017-05-24T00:44:58.783Z,1.46
2017-05-24T00:47:27.007Z,1.70
2017-05-24T00:49:55.219Z,1.92
2017-05-24T00:52:23.443Z,1.84
2017-05-24T00:54:51.747Z,1.82
2017-05-24T00:57:19.979Z,2.08
2017-05-24T00:59:48.185Z,2.00
2017-05-24T01:02:16.428Z,2.14
2017-05-24T01:04:44.635Z,1.70
2017-05-24T01:07:12.839Z,1.98
2017-05-24T01:09:41.071Z,1.78
2017-05-24T01:12:09.278Z,1.98
2017-05-24T01:14:37.529Z,1.60
2017-05-24T01:17:05.799Z,1.96
2017-05-24T01:19:34.074Z,1.96
2017-05-24T01:22:02.291Z,1.90
2017-05-24T01:24:30.525Z,2.26
2017-05-24T01:26:58.740Z,2.20
2017-05-24T01:29:27.079Z,1.60
2017-05-24T01:31:55.291Z,2.34
2017-05-24T01:34:23.523Z,1.92
2017-05-24T01:36:51.735Z,1.54
2017-05-24T01:39:19.959Z,2.32
2017-05-24T01:41:48.167Z,1.68
2017-05-24T01:44:16.376Z,2.10
2017-05-24T01:46:44.603Z,1.80
2017-05-24T01:49:12.813Z,1.96
2017-05-24T01:51:41.035Z,2.16
2017-05-24T01:54:09.239Z,2.06
2017-05-24T01:56:37.463Z,2.10
2017-05-24T01:59:05.679Z,1.98
2017-05-24T02:01:33.895Z,1.90
2017-05-24T02:04:02.116Z,1.66
2017-05-24T02:06:30.336Z,1.78
2017-05-24T02:08:58.556Z,1.72
2017-05-24T02:11:26.775Z,1.90
2017-05-24T02:13:54.989Z,1.90
2017-05-24T02:16:23.223Z,1.94
2017-05-24T02:18:51.448Z,2.02
2017-05-24T02:21:19.664Z,2.00
2017-05-24T02:23:47.897Z,1.86
2017-05-24T02:26:16.097Z,1.52
2017-05-24T02:28:44.319Z,2.08
2017-05-24T02:31:12.527Z,1.60
2017-05-24T02:33:40.759Z,1.80
2017-05-24T02:36:08.975Z,1.86
2017-05-24T02:38:37.275Z,2.24
2017-05-24T02:41:11.388Z,1.84
2017-05-24T02:43:39.624Z,2.68
2017-05-24T02:46:07.831Z,2.16
2017-05-24T02:48:36.052Z,1.58
2017-05-24T02:51:04.257Z,2.22
2017-05-24T02:53:32.463Z,2.54
2017-05-24T02:56:00.684Z,1.64
2017-05-24T02:58:28.899Z,1.90
2017-05-24T03:00:57.132Z,2.40
2017-05-24T03:03:25.348Z,2.14
2017-05-24T03:05:53.562Z,2.20
2017-05-24T03:08:21.771Z,2.04
2017-05-24T03:10:50.001Z,2.08
2017-05-24T03:13:18.208Z,2.38
2017-05-24T03:15:46.427Z,1.90
2017-05-24T03:18:14.719Z,2.50
2017-05-24T03:20:42.944Z,1.82
2017-05-24T03:23:11.163Z,1.70
2017-05-24T03:25:39.374Z,2.58
2017-05-24T03:28:08.099Z,2.10
2017-05-24T03:30:36.366Z,1.76
2017-05-24T03:33:04.579Z,1.80
2017-05-24T03:35:33.610Z,1.88
2017-05-24T03:38:01.831Z,1.90
2017-05-24T03:40:29.276Z,2.06
2017-05-24T03:42:57.499Z,2.32
2017-05-24T03:45:25.760Z,2.06
2017-05-24T03:47:53.988Z,2.24
2017-05-24T03:50:22.195Z,1.60
2017-05-24T03:52:50.419Z,2.02
2017-05-24T03:55:18.639Z,2.12
2017-05-24T03:57:46.847Z,1.84
2017-05-24T04:00:15.079Z,2.10
2017-05-24T04:02:43.296Z,1.70
2017-05-24T04:05:11.523Z,2.04
2017-05-24T04:07:39.731Z,2.48
2017-05-24T04:10:07.955Z,2.10
2017-05-24T04:12:36.173Z,1.76
2017-05-24T04:15:04.399Z,2.36
2017-05-24T04:17:32.611Z,2.50
2017-05-24T04:20:00.831Z,1.64
2017-05-24T04:22:29.048Z,2.16
2017-05-24T04:24:57.264Z,2.46
2017-05-24T04:27:25.489Z,1.72
2017-05-24T04:29:53.700Z,2.54
2017-05-24T04:32:21.919Z,2.10
2017-05-24T04:34:50.131Z,1.84
2017-05-24T04:37:18.347Z,2.70
2017-05-24T04:39:46.571Z,2.00
2017-05-24T04:42:14.790Z,2.04
2017-05-24T04:44:43.008Z,1.80
2017-05-24T04:47:11.231Z,2.00
2017-05-24T04:49:39.439Z,1.84
2017-05-24T04:52:07.647Z,1.68
2017-05-24T04:54:35.875Z,1.52
2017-05-24T04:57:04.093Z,1.60
2017-05-24T04:59:32.312Z,2.22
2017-05-24T05:02:00.532Z,2.18
2017-05-24T05:04:28.755Z,1.96
2017-05-24T05:06:56.965Z,2.00
2017-05-24T05:09:25.203Z,1.64
2017-05-24T05:11:53.407Z,1.70
2017-05-24T05:14:21.631Z,1.80
2017-05-24T05:16:49.848Z,1.90
2017-05-24T05:19:18.079Z,1.94
2017-05-24T05:21:46.295Z,2.14
2017-05-24T05:24:14.524Z,1.90
2017-05-24T05:26:42.735Z,2.46
2017-05-24T05:29:10.967Z,2.02
2017-05-24T05:31:39.199Z,1.52
2017-05-24T05:34:07.455Z,2.16
2017-05-24T05:36:40.201Z,1.90
2017-05-24T05:39:07.674Z,1.92
2017-05-24T05:41:35.891Z,1.72
2017-05-24T05:44:04.127Z,1.98
2017-05-24T05:46:32.374Z,2.18
2017-05-24T05:49:00.611Z,1.94
2017-05-24T05:51:28.892Z,2.18
2017-05-24T05:53:57.156Z,1.64
2017-05-24T05:56:25.697Z,1.74
2017-05-24T05:58:53.945Z,2.00
2017-05-24T06:01:22.764Z,1.88
2017-05-24T06:03:50.253Z,1.80
2017-05-24T06:06:18.555Z,2.22
2017-05-24T06:08:46.816Z,1.90
2017-05-24T06:11:15.116Z,2.00
2017-05-24T06:13:43.341Z,1.86
2017-05-24T06:16:11.573Z,1.82
2017-05-24T06:18:39.818Z,1.60
2017-05-24T06:21:08.051Z,2.12
2017-05-24T06:23:36.292Z,1.62
2017-05-24T06:26:04.529Z,2.02
2017-05-24T06:28:32.769Z,1.68
2017-05-24T06:31:00.999Z,1.76
2017-05-24T06:33:29.240Z,1.74
2017-05-24T06:35:57.468Z,1.56
2017-05-24T06:38:25.696Z,2.12
2017-05-24T06:40:53.915Z,3.34
2017-05-24T06:43:22.528Z,1.50
2017-05-24T06:45:50.755Z,2.00
2017-05-24T06:48:18.970Z,1.70
2017-05-24T06:50:47.200Z,1.64
2017-05-24T06:53:15.412Z,1.70
2017-05-24T06:55:43.635Z,1.54
2017-05-24T06:58:11.092Z,1.88
2017-05-24T07:00:38.548Z,1.56
2017-05-24T07:03:06.000Z,1.28
2017-05-24T07:05:34.224Z,2.08
2017-05-24T07:08:02.440Z,1.98
2017-05-24T07:10:30.667Z,1.94
2017-05-24T07:12:58.890Z,2.18
2017-05-24T07:15:27.111Z,1.56
2017-05-24T07:17:55.324Z,2.30
2017-05-24T07:20:23.572Z,2.20
2017-05-24T07:22:51.784Z,1.96
2017-05-24T07:25:20.007Z,1.80
2017-05-24T07:27:48.231Z,1.98
2017-05-24T07:30:15.679Z,2.28
2017-05-24T07:32:43.903Z,1.82
2017-05-24T07:35:12.124Z,2.82
2017-05-24T07:37:44.361Z,2.18
2017-05-24T07:40:12.571Z,1.90
2017-05-24T07:42:40.792Z,2.80
2017-05-24T07:45:09.004Z,2.20
2017-05-24T07:47:37.238Z,1.92
2017-05-24T07:50:04.691Z,2.76
2017-05-24T07:52:32.148Z,2.88
2017-05-24T07:55:00.368Z,2.20
2017-05-24T07:57:28.590Z,3.22
2017-05-24T07:59:56.808Z,2.22
2017-05-24T08:02:25.035Z,3.22
2017-05-24T08:04:53.245Z,2.34
2017-05-24T08:07:21.475Z,2.80
2017-05-24T08:09:49.693Z,3.24
2017-05-24T08:12:17.912Z,2.94
2017-05-24T08:14:46.144Z,2.94
2017-05-24T08:17:14.360Z,3.22
2017-05-24T08:19:42.588Z,2.56
2017-05-24T08:22:10.811Z,3.32
2017-05-24T08:24:39.031Z,2.66
2017-05-24T08:27:07.256Z,4.04
2017-05-24T08:29:35.479Z,2.58
2017-05-24T08:32:03.708Z,3.08
2017-05-24T08:34:31.943Z,3.18
2017-05-24T08:37:00.159Z,2.56
2017-05-24T08:39:28.384Z,3.58
2017-05-24T08:41:56.616Z,3.16
2017-05-24T08:44:24.838Z,3.46
2017-05-24T08:46:53.056Z,2.76
2017-05-24T08:49:21.272Z,2.88
2017-05-24T08:51:48.731Z,2.98
2017-05-24T08:54:16.948Z,2.92
2017-05-24T08:56:45.176Z,3.52
2017-05-24T08:59:13.393Z,3.46
2017-05-24T09:01:41.615Z,3.12
2017-05-24T09:04:09.832Z,3.68
2017-05-24T09:06:38.060Z,2.82
2017-05-24T09:09:06.270Z,2.62
2017-05-24T09:11:34.515Z,3.38
2017-05-24T09:14:02.723Z,1.98
2017-05-24T09:16:30.939Z,3.04
2017-05-24T09:18:59.168Z,3.00
2017-05-24T09:21:27.392Z,3.18
2017-05-24T09:23:55.620Z,3.50
2017-05-24T09:26:23.834Z,2.84
2017-05-24T09:28:52.067Z,3.06
2017-05-24T09:31:20.284Z,4.42
2017-05-24T09:33:48.507Z,3.74
2017-05-24T09:36:16.729Z,3.18
2017-05-24T09:38:44.960Z,3.68
2017-05-24T09:41:13.172Z,3.10
2017-05-24T09:43:41.387Z,2.80
2017-05-24T09:46:09.608Z,3.52
2017-05-24T09:48:37.840Z,3.32
2017-05-24T09:51:06.051Z,3.38
2017-05-24T09:53:34.284Z,3.62
2017-05-24T09:56:02.489Z,4.00
2017-05-24T09:58:30.739Z,4.70
2017-05-24T10:00:58.955Z,4.32
2017-05-24T10:03:27.172Z,4.36
2017-05-24T10:05:55.390Z,4.42
2017-05-24T10:08:23.607Z,3.92
2017-05-24T10:10:51.840Z,4.20
2017-05-24T10:13:20.059Z,3.72
2017-05-24T10:15:48.287Z,4.00
2017-05-24T10:18:16.507Z,3.50
2017-05-24T10:20:44.731Z,3.16
2017-05-24T10:23:12.957Z,3.50
2017-05-24T10:25:41.175Z,3.48
2017-05-24T10:28:09.392Z,3.62
2017-05-24T10:30:37.623Z,4.02
2017-05-24T10:33:05.828Z,3.50
2017-05-24T10:35:34.048Z,4.24
2017-05-24T10:38:02.266Z,3.60
2017-05-24T10:40:36.055Z,4.14
2017-05-24T10:43:04.281Z,3.60
2017-05-24T10:45:32.503Z,4.40
2017-05-24T10:48:00.739Z,4.82
2017-05-24T10:50:28.951Z,4.10
2017-05-24T10:52:57.176Z,3.94
2017-05-24T10:55:25.395Z,4.74
2017-05-24T10:57:52.864Z,4.52
2017-05-24T11:00:21.081Z,3.88
2017-05-24T11:02:49.304Z,4.40
2017-05-24T11:05:17.568Z,4.70
2017-05-24T11:07:45.820Z,4.72
2017-05-24T11:10:14.020Z,4.80
2017-05-24T11:12:42.803Z,4.30
2017-05-24T11:15:11.940Z,4.80
2017-05-24T11:17:40.155Z,3.88
2017-05-24T11:20:08.384Z,3.40
2017-05-24T11:22:36.600Z,3.70
2017-05-24T11:25:04.834Z,3.90
2017-05-24T11:27:33.052Z,3.90
2017-05-24T11:30:01.275Z,4.16
2017-05-24T11:32:29.491Z,4.20
2017-05-24T11:34:57.704Z,4.38
2017-05-24T11:37:25.931Z,4.30
2017-05-24T11:39:54.155Z,4.92
2017-05-24T11:42:22.372Z,5.88
2017-05-24T11:44:50.647Z,5.32
2017-05-24T11:47:18.812Z,5.24
2017-05-24T11:49:47.032Z,5.28
2017-05-24T11:52:15.267Z,4.54
2017-05-24T11:54:43.491Z,5.10
2017-05-24T11:57:11.719Z,4.00
2017-05-24T11:59:39.940Z,5.18
2017-05-24T12:02:08.173Z,5.76
2017-05-24T12:04:36.386Z,4.76
2017-05-24T12:07:04.619Z,4.20
2017-05-24T12:09:32.832Z,3.96
2017-05-24T12:12:01.056Z,4.66
2017-05-24T12:14:29.274Z,3.66
2017-05-24T12:16:57.513Z,4.62
2017-05-24T12:19:25.724Z,4.24
2017-05-24T12:21:53.944Z,5.16
2017-05-24T12:24:22.181Z,4.60
2017-05-24T12:26:50.815Z,4.20
2017-05-24T12:29:19.040Z,4.92
2017-05-24T12:31:47.252Z,5.14
2017-05-24T12:34:15.483Z,4.70
2017-05-24T12:36:43.703Z,6.22
2017-05-24T12:39:11.936Z,5.66
2017-05-24T12:41:40.148Z,5.74
2017-05-24T12:44:08.388Z,6.66
2017-05-24T12:46:36.606Z,4.90
2017-05-24T12:49:04.844Z,5.44
2017-05-24T12:51:33.764Z,5.82
2017-05-24T12:54:01.983Z,6.92
2017-05-24T12:56:30.205Z,6.04
2017-05-24T12:58:58.416Z,6.62
2017-05-24T13:01:26.649Z,5.36
2017-05-24T13:03:54.868Z,6.62
2017-05-24T13:06:23.099Z,5.48
2017-05-24T13:08:51.311Z,6.78
2017-05-24T13:11:19.555Z,5.24
2017-05-24T13:13:47.775Z,6.30
2017-05-24T13:16:15.990Z,6.20
2017-05-24T13:18:44.216Z,5.58
2017-05-24T13:21:12.423Z,5.94
2017-05-24T13:23:40.651Z,6.12
2017-05-24T13:26:08.875Z,6.18
2017-05-24T13:28:37.116Z,6.88
2017-05-24T13:31:05.327Z,7.16
2017-05-24T13:33:33.551Z,7.12
2017-05-24T13:36:01.772Z,5.88
2017-05-24T13:38:30.012Z,7.12
2017-05-24T13:40:58.228Z,7.90
2017-05-24T13:43:26.439Z,7.22
2017-05-24T13:45:54.680Z,6.78
2017-05-24T13:48:22.900Z,6.78
2017-05-24T13:50:51.134Z,6.02
2017-05-24T13:53:19.348Z,5.76
2017-05-24T13:55:47.588Z,5.64
2017-05-24T13:58:15.032Z,6.98
2017-05-24T14:00:43.260Z,7.04
2017-05-24T14:03:11.484Z,6.18
2017-05-24T14:05:39.703Z,5.72
2017-05-24T14:08:07.915Z,7.14
2017-05-24T14:10:36.148Z,6.04
2017-05-24T14:13:04.369Z,5.10
2017-05-24T14:15:32.592Z,5.66
2017-05-24T14:18:00.819Z,4.70
2017-05-24T14:20:29.028Z,5.80
2017-05-24T14:22:57.259Z,5.44
2017-05-24T14:25:25.486Z,5.06
2017-05-24T14:27:52.952Z,5.30
2017-05-24T14:30:21.171Z,5.64
2017-05-24T14:32:49.391Z,6.00
2017-05-24T14:35:18.428Z,5.30
2017-05-24T14:37:46.651Z,4.74
2017-05-24T14:40:14.871Z,5.34
2017-05-24T14:42:43.101Z,5.62
2017-05-24T14:45:11.312Z,6.06
2017-05-24T14:47:39.543Z,5.46
2017-05-24T14:50:07.750Z,5.34
2017-05-24T14:52:35.964Z,4.94
2017-05-24T14:55:04.200Z,5.14
2017-05-24T14:57:32.423Z,5.14
2017-05-24T15:00:00.651Z,5.42
2017-05-24T15:02:28.331Z,5.20
2017-05-24T15:04:56.551Z,4.76
2017-05-24T15:07:24.768Z,5.22
2017-05-24T15:09:53.056Z,5.52
2017-05-24T15:12:21.271Z,5.46
2017-05-24T15:14:49.494Z,6.08
2017-05-24T15:17:17.725Z,5.64
2017-05-24T15:19:45.948Z,5.96
2017-05-24T15:22:14.160Z,6.20
2017-05-24T15:24:42.419Z,5.38
2017-05-24T15:27:10.636Z,6.00
2017-05-24T15:29:38.860Z,6.20
2017-05-24T15:32:07.069Z,5.40
2017-05-24T15:34:35.292Z,5.68
2017-05-24T15:37:03.516Z,5.48
2017-05-24T15:39:31.732Z,5.18
2017-05-24T15:41:59.960Z,5.52
2017-05-24T15:44:28.171Z,5.56
2017-05-24T15:46:56.419Z,5.70
2017-05-24T15:49:24.632Z,5.52
2017-05-24T15:51:52.868Z,5.70
2017-05-24T15:54:21.092Z,5.76
2017-05-24T15:56:49.319Z,5.46
2017-05-24T15:59:17.544Z,6.00
2017-05-24T16:01:46.181Z,6.48
2017-05-24T16:04:14.396Z,7.68
2017-05-24T16:06:42.603Z,5.88
2017-05-24T16:09:10.835Z,6.92
2017-05-24T16:11:39.059Z,7.10
2017-05-24T16:14:07.283Z,6.50
2017-05-24T16:16:35.499Z,6.64
2017-05-24T16:19:03.736Z,6.40
2017-05-24T16:21:31.957Z,5.66
2017-05-24T16:24:00.179Z,6.48
2017-05-24T16:26:28.392Z,6.20
2017-05-24T16:28:56.611Z,6.44
2017-05-24T16:31:24.058Z,7.62
2017-05-24T16:33:52.289Z,7.98
2017-05-24T16:36:20.509Z,7.14
2017-05-24T16:38:48.739Z,8.20
2017-05-24T16:41:16.975Z,8.06
2017-05-24T16:43:45.200Z,7.78
2017-05-24T16:46:13.423Z,8.18
2017-05-24T16:48:41.641Z,8.84
2017-05-24T16:51:09.867Z,7.78
2017-05-24T16:53:38.097Z,7.82
2017-05-24T16:56:06.319Z,7.82
2017-05-24T16:58:34.535Z,8.70
2017-05-24T17:01:02.763Z,7.50
2017-05-24T17:03:30.975Z,8.32
2017-05-24T17:05:59.204Z,9.58
2017-05-24T17:08:27.420Z,8.36
2017-05-24T17:10:55.648Z,7.70
2017-05-24T17:13:23.872Z,7.82
2017-05-24T17:15:52.307Z,9.66
2017-05-24T17:18:20.519Z,8.12
2017-05-24T17:20:47.995Z,8.26
2017-05-24T17:23:16.736Z,8.44
2017-05-24T17:25:45.741Z,7.48
2017-05-24T17:28:13.967Z,9.40
2017-05-24T17:30:42.204Z,9.18
2017-05-24T17:33:10.440Z,9.54
2017-05-24T17:35:38.654Z,9.38
2017-05-24T17:38:06.875Z,10.44
2017-05-24T17:40:35.087Z,9.88
2017-05-24T17:43:03.312Z,8.48
2017-05-24T17:45:31.535Z,9.12
2017-05-24T17:47:59.763Z,8.58
2017-05-24T17:50:27.972Z,8.42
2017-05-24T17:52:56.221Z,9.00
2017-05-24T17:55:24.431Z,9.22
2017-05-24T17:57:52.655Z,8.62
2017-05-24T18:00:20.859Z,8.90
2017-05-24T18:02:49.082Z,8.36
2017-05-24T18:05:17.295Z,9.72
2017-05-24T18:07:45.539Z,10.18
2017-05-24T18:10:13.747Z,8.74
2017-05-24T18:12:41.980Z,9.34
2017-05-24T18:15:10.188Z,9.94
2017-05-24T18:17:38.403Z,10.60
2017-05-24T18:20:06.637Z,9.48
2017-05-24T18:22:34.859Z,10.22
2017-05-24T18:25:03.088Z,10.96
2017-05-24T18:27:31.307Z,12.48
2017-05-24T18:29:59.532Z,10.22
2017-05-24T18:32:27.755Z,11.00
2017-05-24T18:34:55.980Z,10.92
2017-05-24T18:37:24.196Z,9.60
2017-05-24T18:39:52.421Z,11.18
2017-05-24T18:42:21.055Z,12.48
2017-05-24T18:44:49.291Z,11.06
2017-05-24T18:47:17.504Z,11.22
2017-05-24T18:49:45.725Z,11.86
2017-05-24T18:52:13.955Z,11.16
2017-05-24T18:54:42.178Z,12.40
2017-05-24T18:57:10.412Z,12.54
2017-05-24T18:59:38.627Z,13.10
2017-05-24T19:02:06.855Z,11.66
2017-05-24T19:04:35.079Z,11.76
2017-05-24T19:07:03.307Z,11.66
2017-05-24T19:09:31.527Z,11.58
2017-05-24T19:11:59.755Z,13.30
2017-05-24T19:14:27.976Z,13.80
2017-05-24T19:16:56.228Z,14.36
2017-05-24T19:19:24.444Z,14.10
2017-05-24T19:21:52.656Z,15.86
2017-05-24T19:24:20.884Z,14.24
2017-05-24T19:26:49.107Z,14.44
2017-05-24T19:29:17.336Z,15.40
2017-05-24T19:31:45.553Z,13.34
2017-05-24T19:34:13.775Z,14.76
2017-05-24T19:36:42.004Z,13.48
2017-05-24T19:39:10.231Z,14.50
2017-05-24T19:41:38.459Z,15.46
2017-05-24T19:44:06.680Z,13.26
2017-05-24T19:46:34.910Z,11.84
2017-05-24T19:49:03.134Z,13.56
2017-05-24T19:51:31.352Z,13.66
2017-05-24T19:53:59.575Z,12.48
2017-05-24T19:56:27.806Z,13.62
2017-05-24T19:58:56.031Z,13.48
2017-05-24T20:01:24.277Z,15.38
2017-05-24T20:03:52.491Z,13.62
2017-05-24T20:06:20.729Z,12.92
2017-05-24T20:08:48.953Z,13.36
2017-05-24T20:11:17.183Z,13.10
2017-05-24T20:13:45.395Z,12.80
2017-05-24T20:16:13.625Z,13.44
2017-05-24T20:18:41.844Z,14.54
2017-05-24T20:21:10.078Z,12.96
2017-05-24T20:23:38.296Z,13.56
2017-05-24T20:26:06.551Z,14.56
2017-05-24T20:28:34.781Z,15.62
2017-05-24T20:31:02.999Z,14.80
2017-05-24T20:33:31.231Z,12.86
2017-05-24T20:35:59.452Z,12.86
2017-05-24T20:38:27.687Z,12.78
2017-05-24T20:40:55.907Z,12.30
2017-05-24T20:43:24.143Z,11.88
2017-05-24T20:45:52.371Z,13.52
2017-05-24T20:48:20.599Z,13.44
2017-05-24T20:50:48.819Z,12.88
2017-05-24T20:53:17.068Z,12.90
2017-05-24T20:55:45.300Z,14.04
2017-05-24T20:58:13.516Z,12.86
2017-05-24T21:00:41.755Z,12.32
2017-05-24T21:03:09.986Z,12.20
2017-05-24T21:05:38.223Z,12.48
2017-05-24T21:08:06.435Z,11.98
2017-05-24T21:10:34.675Z,11.58
2017-05-24T21:13:02.891Z,12.04
2017-05-24T21:15:31.118Z,14.18
2017-05-24T21:17:59.336Z,13.46
2017-05-24T21:20:27.566Z,13.06
2017-05-24T21:22:55.790Z,13.82
2017-05-24T21:25:24.027Z,15.60
2017-05-24T21:27:52.244Z,16.78
2017-05-24T21:30:20.490Z,14.46
2017-05-24T21:32:48.696Z,13.62
2017-05-24T21:35:16.952Z,15.60
2017-05-24T21:37:45.174Z,15.52
2017-05-24T21:40:13.388Z,17.40
2017-05-24T21:42:41.625Z,17.64
2017-05-24T21:45:09.835Z,18.88
2017-05-24T21:47:38.070Z,17.38
2017-05-24T21:50:06.288Z,15.98
2017-05-24T21:52:35.051Z,17.60
2017-05-24T21:55:03.272Z,17.74
2017-05-24T21:57:31.503Z,17.32
2017-05-24T21:59:59.737Z,16.22
2017-05-24T22:02:27.975Z,17.96
2017-05-24T22:04:56.193Z,16.86
2017-05-24T22:07:24.423Z,17.22
2017-05-24T22:09:52.658Z,17.88
2017-05-24T22:12:20.876Z,18.04
2017-05-24T22:14:49.107Z,18.48
2017-05-24T22:17:17.332Z,16.76
2017-05-24T22:19:45.562Z,14.64
2017-05-24T22:22:13.787Z,16.44
2017-05-24T22:24:42.015Z,17.14
2017-05-24T22:27:10.244Z,13.54
2017-05-24T22:29:38.478Z,16.12
2017-05-24T22:32:06.691Z,16.18
2017-05-24T22:34:34.931Z,16.98
2017-05-24T22:37:03.149Z,17.52
2017-05-24T22:39:31.388Z,17.52
2017-05-24T22:41:59.600Z,17.38
2017-05-24T22:44:27.821Z,17.50
2017-05-24T22:46:56.051Z,15.22
2017-05-24T22:49:24.274Z,15.74
2017-05-24T22:51:52.502Z,15.90
2017-05-24T22:54:20.728Z,14.90
2017-05-24T22:56:48.953Z,15.92
2017-05-24T22:59:17.167Z,16.40
2017-05-24T23:01:45.399Z,18.16
2017-05-24T23:04:13.619Z,18.08
2017-05-24T23:06:41.844Z,17.68
2017-05-24T23:09:10.069Z,17.60
2017-05-24T23:11:38.299Z,17.32
2017-05-24T23:14:06.517Z,17.24
2017-05-24T23:16:34.744Z,18.64
2017-05-24T23:19:02.961Z,18.08
2017-05-24T23:21:31.185Z,19.82
2017-05-24T23:23:59.410Z,18.86
2017-05-24T23:26:27.636Z,20.32
2017-05-24T23:28:55.868Z,22.02
2017-05-24T23:31:24.080Z,19.06
2017-05-24T23:33:52.317Z,19.26
2017-05-24T23:36:25.403Z,19.10
2017-05-24T23:38:53.631Z,17.72
2017-05-24T23:41:21.851Z,16.66
2017-05-24T23:43:50.096Z,16.36
2017-05-24T23:46:18.303Z,14.82
2017-05-24T23:48:46.535Z,17.12
2017-05-24T23:51:14.756Z,13.86
2017-05-24T23:53:46.336Z,14.80
2017-05-24T23:56:14.556Z,17.44
2017-05-24T23:58:42.788Z,17.34
